sensor_id;sensor_type;location;lat;lon;timestamp;P1;durP1;ratioP1;P2;durP2;ratioP2
51451;SDS011;37521;52.020;-1.740;2022-12-18T00:00:06;8.68;;;3.63;;
51451;SDS011;37521;52.020;-1.740;2022-12-18T00:02:42;6.25;;;2.83;;
51451;SDS011;37521;52.020;-1.740;2022-12-18T00:05:11;7.80;;;3.75;;
51451;SDS011;37521;52.020;-1.740;2022-12-18T00:07:39;8.68;;;3.20;;
51451;SDS011;37521;52.020;-1.740;2022-12-18T00:10:07;6.57;;;3.38;;
51451;SDS011;37521;52.020;-1.740;2022-12-18T00:12:43;6.32;;;3.63;;
51451;SDS011;37521;52.020;-1.740;2022-12-18T00:15:12;7.30;;;3.67;;
51451;SDS011;37521;52.020;-1.740;2022-12-18T00:17:41;7.22;;;3.90;;
51451;SDS011;37521;52.020;-1.740;2022-12-18T00:20:10;8.40;;;4.55;;
51451;SDS011;37521;52.020;-1.740;2022-12-18T00:22:38;8.07;;;3.78;;
51451;SDS011;37521;52.020;-1.740;2022-12-18T00:25:07;9.80;;;4.95;;
51451;SDS011;37521;52.020;-1.740;2022-12-18T00:27:35;7.05;;;3.17;;
51451;SDS011;37521;52.020;-1.740;2022-12-18T00:30:04;12.40;;;4.88;;
51451;SDS011;37521;52.020;-1.740;2022-12-18T00:32:34;11.07;;;4.88;;
51451;SDS011;37521;52.020;-1.740;2022-12-18T00:35:03;9.30;;;4.20;;
51451;SDS011;37521;52.020;-1.740;2022-12-18T00:37:33;6.57;;;3.72;;
51451;SDS011;37521;52.020;-1.740;2022-12-18T00:40:01;8.18;;;4.60;;
51451;SDS011;37521;52.020;-1.740;2022-12-18T00:42:30;10.02;;;4.40;;
51451;SDS011;37521;52.020;-1.740;2022-12-18T00:45:16;8.77;;;4.47;;
51451;SDS011;37521;52.020;-1.740;2022-12-18T00:47:46;8.13;;;4.00;;
51451;SDS011;37521;52.020;-1.740;2022-12-18T00:50:15;6.07;;;3.63;;
51451;SDS011;37521;52.020;-1.740;2022-12-18T00:52:43;11.70;;;4.72;;
51451;SDS011;37521;52.020;-1.740;2022-12-18T00:55:12;8.20;;;4.38;;
51451;SDS011;37521;52.020;-1.740;2022-12-18T00:57:41;8.90;;;4.18;;
51451;SDS011;37521;52.020;-1.740;2022-12-18T01:00:12;10.88;;;4.88;;
51451;SDS011;37521;52.020;-1.740;2022-12-18T01:02:41;3.45;;;3.05;;
51451;SDS011;37521;52.020;-1.740;2022-12-18T01:05:12;9.30;;;4.00;;
51451;SDS011;37521;52.020;-1.740;2022-12-18T01:07:41;10.40;;;4.25;;
51451;SDS011;37521;52.020;-1.740;2022-12-18T01:10:10;5.57;;;3.20;;
51451;SDS011;37521;52.020;-1.740;2022-12-18T01:12:39;5.88;;;3.65;;
51451;SDS011;37521;52.020;-1.740;2022-12-18T01:15:09;4.57;;;3.47;;
51451;SDS011;37521;52.020;-1.740;2022-12-18T01:17:39;4.63;;;3.42;;
51451;SDS011;37521;52.020;-1.740;2022-12-18T01:20:09;8.70;;;4.00;;
51451;SDS011;37521;52.020;-1.740;2022-12-18T01:22:39;11.63;;;4.20;;
51451;SDS011;37521;52.020;-1.740;2022-12-18T01:25:08;8.05;;;4.53;;
51451;SDS011;37521;52.020;-1.740;2022-12-18T01:27:37;4.85;;;4.13;;
51451;SDS011;37521;52.020;-1.740;2022-12-18T01:30:05;7.85;;;3.95;;
51451;SDS011;37521;52.020;-1.740;2022-12-18T01:32:34;7.20;;;3.72;;
51451;SDS011;37521;52.020;-1.740;2022-12-18T01:35:03;9.13;;;4.45;;
51451;SDS011;37521;52.020;-1.740;2022-12-18T01:37:32;11.18;;;4.60;;
51451;SDS011;37521;52.020;-1.740;2022-12-18T01:40:01;9.23;;;4.80;;
51451;SDS011;37521;52.020;-1.740;2022-12-18T01:42:30;5.97;;;3.55;;
51451;SDS011;37521;52.020;-1.740;2022-12-18T01:45:00;12.07;;;5.07;;
51451;SDS011;37521;52.020;-1.740;2022-12-18T01:47:33;13.93;;;6.10;;
51451;SDS011;37521;52.020;-1.740;2022-12-18T01:50:07;10.90;;;4.63;;
51451;SDS011;37521;52.020;-1.740;2022-12-18T01:52:38;8.98;;;4.97;;
51451;SDS011;37521;52.020;-1.740;2022-12-18T01:55:10;10.05;;;4.90;;
51451;SDS011;37521;52.020;-1.740;2022-12-18T01:57:40;9.60;;;4.82;;
51451;SDS011;37521;52.020;-1.740;2022-12-18T02:00:10;11.75;;;5.18;;
51451;SDS011;37521;52.020;-1.740;2022-12-18T02:02:41;12.68;;;4.93;;
51451;SDS011;37521;52.020;-1.740;2022-12-18T02:05:13;13.45;;;4.53;;
51451;SDS011;37521;52.020;-1.740;2022-12-18T02:07:46;10.60;;;5.32;;
51451;SDS011;37521;52.020;-1.740;2022-12-18T02:10:25;12.02;;;5.15;;
51451;SDS011;37521;52.020;-1.740;2022-12-18T02:13:03;11.68;;;5.15;;
51451;SDS011;37521;52.020;-1.740;2022-12-18T02:15:39;8.52;;;4.18;;
51451;SDS011;37521;52.020;-1.740;2022-12-18T02:18:12;7.30;;;4.65;;
51451;SDS011;37521;52.020;-1.740;2022-12-18T02:20:47;13.68;;;5.45;;
51451;SDS011;37521;52.020;-1.740;2022-12-18T02:23:23;10.38;;;5.55;;
51451;SDS011;37521;52.020;-1.740;2022-12-18T02:26:06;17.25;;;4.43;;
51451;SDS011;37521;52.020;-1.740;2022-12-18T02:28:45;19.35;;;6.97;;
51451;SDS011;37521;52.020;-1.740;2022-12-18T02:31:19;16.95;;;5.60;;
51451;SDS011;37521;52.020;-1.740;2022-12-18T02:33:52;12.68;;;5.88;;
51451;SDS011;37521;52.020;-1.740;2022-12-18T02:36:24;17.38;;;6.10;;
51451;SDS011;37521;52.020;-1.740;2022-12-18T02:38:56;9.55;;;4.97;;
51451;SDS011;37521;52.020;-1.740;2022-12-18T02:41:28;12.60;;;6.53;;
51451;SDS011;37521;52.020;-1.740;2022-12-18T02:43:58;17.02;;;5.95;;
51451;SDS011;37521;52.020;-1.740;2022-12-18T02:46:32;15.50;;;5.75;;
51451;SDS011;37521;52.020;-1.740;2022-12-18T02:49:13;12.13;;;5.95;;
51451;SDS011;37521;52.020;-1.740;2022-12-18T02:51:50;13.20;;;5.50;;
51451;SDS011;37521;52.020;-1.740;2022-12-18T02:54:26;12.52;;;5.80;;
51451;SDS011;37521;52.020;-1.740;2022-12-18T02:57:08;19.00;;;6.75;;
51451;SDS011;37521;52.020;-1.740;2022-12-18T02:59:47;15.68;;;7.43;;
51451;SDS011;37521;52.020;-1.740;2022-12-18T03:02:23;16.10;;;7.22;;
51451;SDS011;37521;52.020;-1.740;2022-12-18T03:04:56;12.88;;;5.63;;
51451;SDS011;37521;52.020;-1.740;2022-12-18T03:07:33;12.18;;;5.35;;
51451;SDS011;37521;52.020;-1.740;2022-12-18T03:10:09;21.77;;;6.82;;
51451;SDS011;37521;52.020;-1.740;2022-12-18T03:12:46;15.82;;;6.30;;
51451;SDS011;37521;52.020;-1.740;2022-12-18T03:15:21;12.68;;;5.95;;
51451;SDS011;37521;52.020;-1.740;2022-12-18T03:18:02;17.27;;;7.00;;
51451;SDS011;37521;52.020;-1.740;2022-12-18T03:20:34;16.00;;;6.40;;
51451;SDS011;37521;52.020;-1.740;2022-12-18T03:23:07;15.13;;;6.13;;
51451;SDS011;37521;52.020;-1.740;2022-12-18T03:25:45;22.83;;;7.97;;
51451;SDS011;37521;52.020;-1.740;2022-12-18T03:28:18;18.38;;;7.43;;
51451;SDS011;37521;52.020;-1.740;2022-12-18T03:30:56;13.30;;;6.55;;
51451;SDS011;37521;52.020;-1.740;2022-12-18T03:33:29;22.17;;;6.93;;
51451;SDS011;37521;52.020;-1.740;2022-12-18T03:36:00;14.18;;;6.13;;
51451;SDS011;37521;52.020;-1.740;2022-12-18T03:38:29;11.82;;;4.75;;
51451;SDS011;37521;52.020;-1.740;2022-12-18T03:40:59;18.15;;;6.28;;
51451;SDS011;37521;52.020;-1.740;2022-12-18T03:43:48;17.85;;;6.63;;
51451;SDS011;37521;52.020;-1.740;2022-12-18T03:46:23;12.02;;;5.95;;
51451;SDS011;37521;52.020;-1.740;2022-12-18T03:48:58;14.85;;;5.20;;
51451;SDS011;37521;52.020;-1.740;2022-12-18T03:51:33;16.90;;;6.45;;
51451;SDS011;37521;52.020;-1.740;2022-12-18T03:54:07;16.23;;;5.65;;
51451;SDS011;37521;52.020;-1.740;2022-12-18T03:56:44;11.35;;;5.10;;
51451;SDS011;37521;52.020;-1.740;2022-12-18T03:59:17;13.80;;;6.47;;
51451;SDS011;37521;52.020;-1.740;2022-12-18T04:01:49;11.18;;;5.22;;
51451;SDS011;37521;52.020;-1.740;2022-12-18T04:06:51;11.07;;;4.57;;
51451;SDS011;37521;52.020;-1.740;2022-12-18T04:09:23;13.95;;;5.05;;
51451;SDS011;37521;52.020;-1.740;2022-12-18T04:11:52;16.70;;;6.18;;
51451;SDS011;37521;52.020;-1.740;2022-12-18T04:14:22;11.85;;;5.95;;
51451;SDS011;37521;52.020;-1.740;2022-12-18T04:16:54;11.38;;;5.25;;
51451;SDS011;37521;52.020;-1.740;2022-12-18T04:19:28;11.07;;;5.10;;
51451;SDS011;37521;52.020;-1.740;2022-12-18T04:21:57;14.90;;;6.28;;
51451;SDS011;37521;52.020;-1.740;2022-12-18T04:24:29;13.18;;;5.88;;
51451;SDS011;37521;52.020;-1.740;2022-12-18T04:27:07;14.32;;;5.97;;
51451;SDS011;37521;52.020;-1.740;2022-12-18T04:29:43;19.20;;;7.85;;
51451;SDS011;37521;52.020;-1.740;2022-12-18T04:32:11;27.00;;;7.28;;
51451;SDS011;37521;52.020;-1.740;2022-12-18T04:34:42;20.60;;;7.22;;
51451;SDS011;37521;52.020;-1.740;2022-12-18T04:37:11;14.80;;;6.13;;
51451;SDS011;37521;52.020;-1.740;2022-12-18T04:39:39;20.75;;;7.50;;
51451;SDS011;37521;52.020;-1.740;2022-12-18T04:42:14;17.55;;;6.35;;
51451;SDS011;37521;52.020;-1.740;2022-12-18T04:44:44;18.88;;;6.95;;
51451;SDS011;37521;52.020;-1.740;2022-12-18T04:47:12;18.98;;;8.13;;
51451;SDS011;37521;52.020;-1.740;2022-12-18T04:49:40;18.85;;;7.88;;
51451;SDS011;37521;52.020;-1.740;2022-12-18T04:52:08;17.50;;;6.50;;
51451;SDS011;37521;52.020;-1.740;2022-12-18T04:54:36;18.35;;;8.70;;
51451;SDS011;37521;52.020;-1.740;2022-12-18T04:57:05;21.30;;;6.35;;
51451;SDS011;37521;52.020;-1.740;2022-12-18T04:59:33;22.67;;;7.78;;
51451;SDS011;37521;52.020;-1.740;2022-12-18T05:02:02;19.05;;;7.68;;
51451;SDS011;37521;52.020;-1.740;2022-12-18T05:04:31;20.15;;;8.63;;
51451;SDS011;37521;52.020;-1.740;2022-12-18T05:06:59;21.40;;;8.02;;
51451;SDS011;37521;52.020;-1.740;2022-12-18T05:09:27;19.30;;;7.15;;
51451;SDS011;37521;52.020;-1.740;2022-12-18T05:11:56;12.68;;;5.75;;
51451;SDS011;37521;52.020;-1.740;2022-12-18T05:14:24;15.70;;;7.28;;
51451;SDS011;37521;52.020;-1.740;2022-12-18T05:16:54;19.08;;;7.85;;
51451;SDS011;37521;52.020;-1.740;2022-12-18T05:19:27;16.02;;;6.88;;
51451;SDS011;37521;52.020;-1.740;2022-12-18T05:21:56;22.60;;;7.28;;
51451;SDS011;37521;52.020;-1.740;2022-12-18T05:24:24;16.80;;;6.93;;
51451;SDS011;37521;52.020;-1.740;2022-12-18T05:26:53;13.27;;;6.22;;
51451;SDS011;37521;52.020;-1.740;2022-12-18T05:29:21;22.30;;;7.78;;
51451;SDS011;37521;52.020;-1.740;2022-12-18T05:31:49;17.88;;;7.03;;
51451;SDS011;37521;52.020;-1.740;2022-12-18T05:34:18;15.75;;;6.90;;
51451;SDS011;37521;52.020;-1.740;2022-12-18T05:36:47;14.60;;;6.38;;
51451;SDS011;37521;52.020;-1.740;2022-12-18T05:39:16;21.08;;;7.13;;
51451;SDS011;37521;52.020;-1.740;2022-12-18T05:41:44;19.02;;;7.40;;
51451;SDS011;37521;52.020;-1.740;2022-12-18T05:44:13;22.65;;;8.23;;
51451;SDS011;37521;52.020;-1.740;2022-12-18T05:46:41;14.77;;;5.68;;
51451;SDS011;37521;52.020;-1.740;2022-12-18T05:49:09;23.98;;;9.18;;
51451;SDS011;37521;52.020;-1.740;2022-12-18T05:51:38;18.60;;;6.38;;
51451;SDS011;37521;52.020;-1.740;2022-12-18T05:54:08;14.13;;;7.00;;
51451;SDS011;37521;52.020;-1.740;2022-12-18T05:56:36;13.55;;;6.03;;
51451;SDS011;37521;52.020;-1.740;2022-12-18T05:59:11;15.00;;;7.43;;
51451;SDS011;37521;52.020;-1.740;2022-12-18T06:01:39;20.67;;;6.63;;
51451;SDS011;37521;52.020;-1.740;2022-12-18T06:04:07;22.50;;;6.47;;
51451;SDS011;37521;52.020;-1.740;2022-12-18T06:06:35;12.02;;;6.10;;
51451;SDS011;37521;52.020;-1.740;2022-12-18T06:09:04;15.65;;;6.00;;
51451;SDS011;37521;52.020;-1.740;2022-12-18T06:11:36;22.27;;;7.97;;
51451;SDS011;37521;52.020;-1.740;2022-12-18T06:14:05;16.20;;;6.82;;
51451;SDS011;37521;52.020;-1.740;2022-12-18T06:16:34;18.65;;;7.68;;
51451;SDS011;37521;52.020;-1.740;2022-12-18T06:19:03;25.52;;;7.00;;
51451;SDS011;37521;52.020;-1.740;2022-12-18T06:21:32;15.82;;;6.55;;
51451;SDS011;37521;52.020;-1.740;2022-12-18T06:24:01;20.15;;;7.07;;
51451;SDS011;37521;52.020;-1.740;2022-12-18T06:26:30;19.83;;;6.90;;
51451;SDS011;37521;52.020;-1.740;2022-12-18T06:28:59;20.38;;;6.53;;
51451;SDS011;37521;52.020;-1.740;2022-12-18T06:31:28;17.55;;;5.65;;
51451;SDS011;37521;52.020;-1.740;2022-12-18T06:33:56;18.85;;;6.32;;
51451;SDS011;37521;52.020;-1.740;2022-12-18T06:36:24;24.38;;;7.57;;
51451;SDS011;37521;52.020;-1.740;2022-12-18T06:41:26;15.20;;;5.25;;
51451;SDS011;37521;52.020;-1.740;2022-12-18T06:43:55;16.67;;;6.15;;
51451;SDS011;37521;52.020;-1.740;2022-12-18T06:46:27;12.60;;;5.80;;
51451;SDS011;37521;52.020;-1.740;2022-12-18T06:48:55;21.67;;;6.10;;
51451;SDS011;37521;52.020;-1.740;2022-12-18T06:51:23;14.35;;;6.85;;
51451;SDS011;37521;52.020;-1.740;2022-12-18T06:53:52;12.98;;;6.72;;
51451;SDS011;37521;52.020;-1.740;2022-12-18T06:56:20;18.63;;;7.95;;
51451;SDS011;37521;52.020;-1.740;2022-12-18T06:58:48;13.57;;;6.10;;
51451;SDS011;37521;52.020;-1.740;2022-12-18T07:01:17;12.75;;;5.78;;
51451;SDS011;37521;52.020;-1.740;2022-12-18T07:03:51;16.70;;;5.70;;
51451;SDS011;37521;52.020;-1.740;2022-12-18T07:06:21;17.65;;;7.22;;
51451;SDS011;37521;52.020;-1.740;2022-12-18T07:08:51;14.05;;;5.70;;
51451;SDS011;37521;52.020;-1.740;2022-12-18T07:11:21;15.60;;;6.30;;
51451;SDS011;37521;52.020;-1.740;2022-12-18T07:13:49;16.58;;;7.38;;
51451;SDS011;37521;52.020;-1.740;2022-12-18T07:16:18;13.88;;;4.55;;
51451;SDS011;37521;52.020;-1.740;2022-12-18T07:18:53;15.77;;;6.53;;
51451;SDS011;37521;52.020;-1.740;2022-12-18T07:21:23;12.85;;;5.90;;
51451;SDS011;37521;52.020;-1.740;2022-12-18T07:23:51;16.77;;;6.32;;
51451;SDS011;37521;52.020;-1.740;2022-12-18T07:26:20;12.07;;;4.95;;
51451;SDS011;37521;52.020;-1.740;2022-12-18T07:28:49;18.00;;;6.85;;
51451;SDS011;37521;52.020;-1.740;2022-12-18T07:31:19;12.57;;;5.65;;
51451;SDS011;37521;52.020;-1.740;2022-12-18T07:33:49;11.95;;;5.28;;
51451;SDS011;37521;52.020;-1.740;2022-12-18T07:36:19;8.40;;;4.07;;
51451;SDS011;37521;52.020;-1.740;2022-12-18T07:38:50;13.02;;;5.55;;
51451;SDS011;37521;52.020;-1.740;2022-12-18T07:41:19;13.60;;;4.80;;
51451;SDS011;37521;52.020;-1.740;2022-12-18T07:43:48;14.45;;;5.78;;
51451;SDS011;37521;52.020;-1.740;2022-12-18T07:46:16;14.32;;;5.97;;
51451;SDS011;37521;52.020;-1.740;2022-12-18T07:48:45;7.47;;;2.95;;
51451;SDS011;37521;52.020;-1.740;2022-12-18T07:51:16;12.07;;;5.55;;
51451;SDS011;37521;52.020;-1.740;2022-12-18T07:53:46;12.02;;;5.15;;
51451;SDS011;37521;52.020;-1.740;2022-12-18T07:56:18;8.20;;;4.40;;
51451;SDS011;37521;52.020;-1.740;2022-12-18T07:58:54;10.15;;;5.20;;
51451;SDS011;37521;52.020;-1.740;2022-12-18T08:01:22;13.38;;;4.13;;
51451;SDS011;37521;52.020;-1.740;2022-12-18T08:03:51;12.32;;;5.30;;
51451;SDS011;37521;52.020;-1.740;2022-12-18T08:06:19;8.45;;;3.90;;
51451;SDS011;37521;52.020;-1.740;2022-12-18T08:08:52;10.55;;;5.50;;
51451;SDS011;37521;52.020;-1.740;2022-12-18T08:11:21;12.85;;;6.43;;
51451;SDS011;37521;52.020;-1.740;2022-12-18T08:13:51;13.63;;;5.15;;
51451;SDS011;37521;52.020;-1.740;2022-12-18T08:16:20;10.40;;;4.22;;
51451;SDS011;37521;52.020;-1.740;2022-12-18T08:18:48;12.80;;;4.82;;
51451;SDS011;37521;52.020;-1.740;2022-12-18T08:21:18;11.13;;;4.22;;
51451;SDS011;37521;52.020;-1.740;2022-12-18T08:23:49;13.35;;;5.45;;
51451;SDS011;37521;52.020;-1.740;2022-12-18T08:26:20;15.52;;;4.78;;
51451;SDS011;37521;52.020;-1.740;2022-12-18T08:28:50;15.05;;;6.78;;
51451;SDS011;37521;52.020;-1.740;2022-12-18T08:31:18;8.82;;;4.75;;
51451;SDS011;37521;52.020;-1.740;2022-12-18T08:33:49;11.95;;;5.65;;
51451;SDS011;37521;52.020;-1.740;2022-12-18T08:36:17;9.70;;;4.63;;
51451;SDS011;37521;52.020;-1.740;2022-12-18T08:38:46;10.73;;;4.85;;
51451;SDS011;37521;52.020;-1.740;2022-12-18T08:41:16;8.93;;;4.43;;
51451;SDS011;37521;52.020;-1.740;2022-12-18T08:43:46;11.65;;;4.78;;
51451;SDS011;37521;52.020;-1.740;2022-12-18T08:46:32;15.70;;;4.78;;
51451;SDS011;37521;52.020;-1.740;2022-12-18T08:49:02;14.63;;;5.72;;
51451;SDS011;37521;52.020;-1.740;2022-12-18T08:51:31;8.90;;;5.15;;
51451;SDS011;37521;52.020;-1.740;2022-12-18T08:53:59;11.45;;;4.25;;
51451;SDS011;37521;52.020;-1.740;2022-12-18T08:56:30;13.02;;;4.88;;
51451;SDS011;37521;52.020;-1.740;2022-12-18T08:58:59;10.07;;;4.88;;
51451;SDS011;37521;52.020;-1.740;2022-12-18T09:01:28;10.85;;;5.72;;
51451;SDS011;37521;52.020;-1.740;2022-12-18T09:03:57;12.13;;;4.78;;
51451;SDS011;37521;52.020;-1.740;2022-12-18T09:06:25;12.00;;;6.43;;
51451;SDS011;37521;52.020;-1.740;2022-12-18T09:08:54;12.77;;;6.18;;
51451;SDS011;37521;52.020;-1.740;2022-12-18T09:11:23;15.68;;;5.85;;
51451;SDS011;37521;52.020;-1.740;2022-12-18T09:13:55;9.27;;;4.53;;
51451;SDS011;37521;52.020;-1.740;2022-12-18T09:16:24;15.15;;;5.95;;
51451;SDS011;37521;52.020;-1.740;2022-12-18T09:21:27;9.45;;;5.35;;
51451;SDS011;37521;52.020;-1.740;2022-12-18T09:24:02;12.50;;;5.30;;
51451;SDS011;37521;52.020;-1.740;2022-12-18T09:26:34;11.55;;;5.10;;
51451;SDS011;37521;52.020;-1.740;2022-12-18T09:29:06;12.48;;;5.30;;
51451;SDS011;37521;52.020;-1.740;2022-12-18T09:31:35;16.90;;;5.63;;
51451;SDS011;37521;52.020;-1.740;2022-12-18T09:34:04;14.38;;;7.10;;
51451;SDS011;37521;52.020;-1.740;2022-12-18T09:36:32;10.95;;;4.70;;
51451;SDS011;37521;52.020;-1.740;2022-12-18T09:39:01;6.88;;;4.53;;
51451;SDS011;37521;52.020;-1.740;2022-12-18T09:41:39;13.37;;;6.17;;
51451;SDS011;37521;52.020;-1.740;2022-12-18T09:44:14;16.42;;;5.65;;
51451;SDS011;37521;52.020;-1.740;2022-12-18T09:46:50;13.98;;;5.25;;
51451;SDS011;37521;52.020;-1.740;2022-12-18T09:49:23;9.23;;;4.55;;
51451;SDS011;37521;52.020;-1.740;2022-12-18T09:51:57;13.30;;;5.93;;
51451;SDS011;37521;52.020;-1.740;2022-12-18T09:54:31;10.90;;;4.97;;
51451;SDS011;37521;52.020;-1.740;2022-12-18T09:57:03;15.23;;;5.43;;
51451;SDS011;37521;52.020;-1.740;2022-12-18T09:59:33;9.57;;;4.85;;
51451;SDS011;37521;52.020;-1.740;2022-12-18T10:02:12;10.32;;;5.03;;
51451;SDS011;37521;52.020;-1.740;2022-12-18T10:04:43;11.90;;;5.50;;
51451;SDS011;37521;52.020;-1.740;2022-12-18T10:07:14;15.18;;;5.40;;
51451;SDS011;37521;52.020;-1.740;2022-12-18T10:09:48;14.30;;;5.78;;
51451;SDS011;37521;52.020;-1.740;2022-12-18T10:12:26;11.65;;;5.47;;
51451;SDS011;37521;52.020;-1.740;2022-12-18T10:15:02;13.52;;;5.90;;
51451;SDS011;37521;52.020;-1.740;2022-12-18T10:17:37;12.00;;;6.00;;
51451;SDS011;37521;52.020;-1.740;2022-12-18T10:20:15;10.52;;;5.15;;
51451;SDS011;37521;52.020;-1.740;2022-12-18T10:22:58;13.57;;;5.40;;
51451;SDS011;37521;52.020;-1.740;2022-12-18T10:25:32;10.45;;;5.43;;
51451;SDS011;37521;52.020;-1.740;2022-12-18T10:28:07;14.68;;;4.78;;
51451;SDS011;37521;52.020;-1.740;2022-12-18T10:30:41;9.50;;;4.82;;
51451;SDS011;37521;52.020;-1.740;2022-12-18T10:33:11;10.15;;;4.85;;
51451;SDS011;37521;52.020;-1.740;2022-12-18T10:35:43;14.40;;;5.07;;
51451;SDS011;37521;52.020;-1.740;2022-12-18T10:41:01;10.98;;;5.28;;
51451;SDS011;37521;52.020;-1.740;2022-12-18T10:43:30;13.48;;;6.65;;
51451;SDS011;37521;52.020;-1.740;2022-12-18T10:46:02;14.20;;;6.13;;
51451;SDS011;37521;52.020;-1.740;2022-12-18T10:48:47;15.35;;;6.05;;
51451;SDS011;37521;52.020;-1.740;2022-12-18T10:51:20;13.52;;;5.97;;
51451;SDS011;37521;52.020;-1.740;2022-12-18T10:53:52;12.10;;;6.10;;
51451;SDS011;37521;52.020;-1.740;2022-12-18T10:56:24;9.70;;;4.75;;
51451;SDS011;37521;52.020;-1.740;2022-12-18T10:58:56;15.50;;;6.15;;
51451;SDS011;37521;52.020;-1.740;2022-12-18T11:01:29;13.63;;;6.43;;
51451;SDS011;37521;52.020;-1.740;2022-12-18T11:04:15;11.75;;;5.28;;
51451;SDS011;37521;52.020;-1.740;2022-12-18T11:06:52;14.57;;;6.10;;
51451;SDS011;37521;52.020;-1.740;2022-12-18T11:09:23;12.27;;;6.00;;
51451;SDS011;37521;52.020;-1.740;2022-12-18T11:11:53;10.82;;;5.65;;
51451;SDS011;37521;52.020;-1.740;2022-12-18T11:14:24;15.32;;;6.28;;
51451;SDS011;37521;52.020;-1.740;2022-12-18T11:16:55;11.75;;;5.68;;
51451;SDS011;37521;52.020;-1.740;2022-12-18T11:19:45;15.45;;;6.32;;
51451;SDS011;37521;52.020;-1.740;2022-12-18T11:22:21;17.33;;;5.93;;
51451;SDS011;37521;52.020;-1.740;2022-12-18T11:24:54;10.40;;;5.50;;
51451;SDS011;37521;52.020;-1.740;2022-12-18T11:27:47;9.73;;;4.97;;
51451;SDS011;37521;52.020;-1.740;2022-12-18T11:30:21;14.98;;;6.20;;
51451;SDS011;37521;52.020;-1.740;2022-12-18T11:32:52;17.98;;;6.53;;
51451;SDS011;37521;52.020;-1.740;2022-12-18T11:35:25;15.43;;;6.50;;
51451;SDS011;37521;52.020;-1.740;2022-12-18T11:38:05;10.20;;;5.55;;
51451;SDS011;37521;52.020;-1.740;2022-12-18T11:40:45;15.95;;;6.82;;
51451;SDS011;37521;52.020;-1.740;2022-12-18T11:43:22;15.70;;;6.43;;
51451;SDS011;37521;52.020;-1.740;2022-12-18T11:45:55;17.23;;;6.07;;
51451;SDS011;37521;52.020;-1.740;2022-12-18T11:48:32;9.25;;;5.18;;
51451;SDS011;37521;52.020;-1.740;2022-12-18T11:51:05;11.50;;;6.10;;
51451;SDS011;37521;52.020;-1.740;2022-12-18T11:53:40;14.55;;;6.32;;
51451;SDS011;37521;52.020;-1.740;2022-12-18T11:56:14;10.45;;;5.53;;
51451;SDS011;37521;52.020;-1.740;2022-12-18T11:58:56;15.35;;;6.97;;
51451;SDS011;37521;52.020;-1.740;2022-12-18T12:01:36;13.23;;;6.70;;
51451;SDS011;37521;52.020;-1.740;2022-12-18T12:04:22;16.73;;;7.47;;
51451;SDS011;37521;52.020;-1.740;2022-12-18T12:07:09;17.77;;;8.45;;
51451;SDS011;37521;52.020;-1.740;2022-12-18T12:09:49;19.63;;;6.65;;
51451;SDS011;37521;52.020;-1.740;2022-12-18T12:12:27;13.65;;;5.50;;
51451;SDS011;37521;52.020;-1.740;2022-12-18T12:15:18;16.33;;;6.57;;
51451;SDS011;37521;52.020;-1.740;2022-12-18T12:17:57;16.52;;;7.40;;
51451;SDS011;37521;52.020;-1.740;2022-12-18T12:20:42;15.10;;;6.50;;
51451;SDS011;37521;52.020;-1.740;2022-12-18T12:23:19;16.65;;;7.78;;
51451;SDS011;37521;52.020;-1.740;2022-12-18T12:25:56;19.00;;;7.30;;
51451;SDS011;37521;52.020;-1.740;2022-12-18T12:28:34;14.48;;;6.82;;
51451;SDS011;37521;52.020;-1.740;2022-12-18T12:31:22;14.15;;;5.70;;
51451;SDS011;37521;52.020;-1.740;2022-12-18T12:34:01;18.20;;;7.50;;
51451;SDS011;37521;52.020;-1.740;2022-12-18T12:36:40;19.85;;;7.43;;
51451;SDS011;37521;52.020;-1.740;2022-12-18T12:39:20;18.63;;;6.95;;
51451;SDS011;37521;52.020;-1.740;2022-12-18T12:41:53;14.60;;;7.07;;
51451;SDS011;37521;52.020;-1.740;2022-12-18T12:44:39;18.95;;;8.25;;
51451;SDS011;37521;52.020;-1.740;2022-12-18T12:47:19;17.95;;;7.10;;
51451;SDS011;37521;52.020;-1.740;2022-12-18T12:52:25;13.23;;;6.95;;
51451;SDS011;37521;52.020;-1.740;2022-12-18T12:54:58;15.48;;;7.43;;
51451;SDS011;37521;52.020;-1.740;2022-12-18T12:57:30;16.67;;;8.23;;
51451;SDS011;37521;52.020;-1.740;2022-12-18T13:00:08;12.88;;;5.97;;
51451;SDS011;37521;52.020;-1.740;2022-12-18T13:02:42;21.27;;;7.93;;
51451;SDS011;37521;52.020;-1.740;2022-12-18T13:05:17;15.93;;;6.63;;
51451;SDS011;37521;52.020;-1.740;2022-12-18T13:07:54;14.50;;;6.60;;
51451;SDS011;37521;52.020;-1.740;2022-12-18T13:10:31;16.40;;;6.85;;
51451;SDS011;37521;52.020;-1.740;2022-12-18T13:13:02;15.25;;;5.70;;
51451;SDS011;37521;52.020;-1.740;2022-12-18T13:15:37;18.58;;;6.78;;
51451;SDS011;37521;52.020;-1.740;2022-12-18T13:21:12;15.13;;;4.95;;
51451;SDS011;37521;52.020;-1.740;2022-12-18T13:23:51;17.85;;;6.13;;
51451;SDS011;37521;52.020;-1.740;2022-12-18T13:29:06;12.23;;;5.65;;
51451;SDS011;37521;52.020;-1.740;2022-12-18T13:34:28;12.77;;;6.03;;
51451;SDS011;37521;52.020;-1.740;2022-12-18T13:40:02;12.20;;;7.25;;
51451;SDS011;37521;52.020;-1.740;2022-12-18T13:42:51;11.10;;;4.80;;
51451;SDS011;37521;52.020;-1.740;2022-12-18T13:45:38;16.45;;;6.25;;
51451;SDS011;37521;52.020;-1.740;2022-12-18T13:48:15;15.93;;;6.15;;
51451;SDS011;37521;52.020;-1.740;2022-12-18T13:50:49;12.60;;;6.10;;
51451;SDS011;37521;52.020;-1.740;2022-12-18T13:53:23;18.05;;;6.78;;
51451;SDS011;37521;52.020;-1.740;2022-12-18T13:55:56;13.30;;;4.78;;
51451;SDS011;37521;52.020;-1.740;2022-12-18T13:58:24;13.07;;;6.47;;
51451;SDS011;37521;52.020;-1.740;2022-12-18T14:00:53;9.02;;;5.55;;
51451;SDS011;37521;52.020;-1.740;2022-12-18T14:03:22;10.38;;;5.70;;
51451;SDS011;37521;52.020;-1.740;2022-12-18T14:05:53;11.57;;;5.43;;
51451;SDS011;37521;52.020;-1.740;2022-12-18T14:08:24;13.30;;;5.57;;
51451;SDS011;37521;52.020;-1.740;2022-12-18T14:10:59;15.90;;;6.07;;
51451;SDS011;37521;52.020;-1.740;2022-12-18T14:13:31;12.48;;;5.88;;
51451;SDS011;37521;52.020;-1.740;2022-12-18T14:16:03;9.45;;;4.82;;
51451;SDS011;37521;52.020;-1.740;2022-12-18T14:18:38;8.80;;;4.45;;
51451;SDS011;37521;52.020;-1.740;2022-12-18T14:21:17;7.38;;;4.05;;
51451;SDS011;37521;52.020;-1.740;2022-12-18T14:23:48;13.35;;;5.13;;
51451;SDS011;37521;52.020;-1.740;2022-12-18T14:26:22;8.10;;;4.78;;
51451;SDS011;37521;52.020;-1.740;2022-12-18T14:28:55;12.90;;;5.50;;
51451;SDS011;37521;52.020;-1.740;2022-12-18T14:31:25;11.27;;;5.68;;
51451;SDS011;37521;52.020;-1.740;2022-12-18T14:33:54;11.13;;;6.80;;
51451;SDS011;37521;52.020;-1.740;2022-12-18T14:36:24;11.45;;;4.38;;
51451;SDS011;37521;52.020;-1.740;2022-12-18T14:38:53;6.22;;;3.78;;
51451;SDS011;37521;52.020;-1.740;2022-12-18T14:41:25;7.82;;;4.03;;
51451;SDS011;37521;52.020;-1.740;2022-12-18T14:43:54;8.93;;;5.32;;
51451;SDS011;37521;52.020;-1.740;2022-12-18T14:46:27;8.15;;;4.07;;
51451;SDS011;37521;52.020;-1.740;2022-12-18T14:49:00;6.38;;;4.38;;
51451;SDS011;37521;52.020;-1.740;2022-12-18T14:51:31;9.80;;;4.20;;
51451;SDS011;37521;52.020;-1.740;2022-12-18T14:54:02;9.18;;;4.13;;
51451;SDS011;37521;52.020;-1.740;2022-12-18T14:56:37;6.45;;;3.90;;
51451;SDS011;37521;52.020;-1.740;2022-12-18T14:59:13;8.15;;;4.63;;
51451;SDS011;37521;52.020;-1.740;2022-12-18T15:01:53;6.53;;;3.55;;
51451;SDS011;37521;52.020;-1.740;2022-12-18T15:04:28;8.90;;;4.38;;
51451;SDS011;37521;52.020;-1.740;2022-12-18T15:07:05;5.57;;;3.90;;
51451;SDS011;37521;52.020;-1.740;2022-12-18T15:09:38;7.65;;;4.45;;
51451;SDS011;37521;52.020;-1.740;2022-12-18T15:12:19;5.63;;;3.15;;
51451;SDS011;37521;52.020;-1.740;2022-12-18T15:14:53;6.20;;;3.80;;
51451;SDS011;37521;52.020;-1.740;2022-12-18T15:17:22;6.05;;;3.47;;